Lastrup, Minnesota
Current Conditions -  °F | °C
As of 7:37 AM on Thursday 23 Oct 2014 (Local Time) from KLXL Reporting Station
Haze Haze  
Wind Chill: 50°   Ceiling: 300
Heat Index: 50°   Visibility: 1.7mi
Dew Point: 50°   Wind: 5mph
Humidity: 100%   Direction: 200°SSW
Pressure: 29.96"   Gusts: NA
Location:  46.04°N, 94.06°W
Report Text: KLXL 231237Z AUTO 20004KT 1 3/4SM BR OVC003 10/10 A2996 RMK AO2
Loading
Personal Weather Stations






























Interactive Weather Map
Tropical Storm Tracking
New forecast layout! Learn more

10-Day Weather Forecast

Advertisements
Track Severe Weather on mobile